createdAt,value
2023-05-19T00:00:00.857Z,15.47
2023-05-19T00:03:10.098Z,15.46
2023-05-19T00:06:18.079Z,15.42
2023-05-19T00:09:25.150Z,15.37
2023-05-19T00:12:31.751Z,15.32
2023-05-19T00:15:39.480Z,15.30
2023-05-19T00:18:44.922Z,15.26
2023-05-19T00:21:50.695Z,15.24
2023-05-19T00:24:57.415Z,15.24
2023-05-19T00:28:05.757Z,15.24
2023-05-19T00:31:11.679Z,15.23
2023-05-19T00:34:18.487Z,15.17
2023-05-19T00:37:25.569Z,15.12
2023-05-19T00:40:32.719Z,15.07
2023-05-19T00:43:38.096Z,14.99
2023-05-19T00:46:45.065Z,14.89
2023-05-19T00:49:50.369Z,14.80
2023-05-19T00:52:57.133Z,14.72
2023-05-19T00:56:03.684Z,14.63
2023-05-19T00:59:10.342Z,14.58
2023-05-19T01:02:15.592Z,14.51
2023-05-19T01:05:22.731Z,14.45
2023-05-19T01:08:29.049Z,14.39
2023-05-19T01:11:36.071Z,14.34
2023-05-19T01:14:41.680Z,14.29
2023-05-19T01:18:14.096Z,14.29
2023-05-19T01:21:30.177Z,14.27
2023-05-19T01:24:56.701Z,14.27
2023-05-19T01:28:23.331Z,14.26
2023-05-19T01:31:32.189Z,14.23
2023-05-19T01:34:38.510Z,14.18
2023-05-19T01:37:45.341Z,14.16
2023-05-19T01:40:52.441Z,14.16
2023-05-19T01:43:57.721Z,14.18
2023-05-19T01:47:04.463Z,14.16
2023-05-19T01:50:10.449Z,14.14
2023-05-19T01:53:16.435Z,14.10
2023-05-19T01:56:23.858Z,14.05
2023-05-19T01:59:53.118Z,14.01
2023-05-19T02:03:23.473Z,13.98
2023-05-19T02:07:16.522Z,13.97
2023-05-19T02:10:37.342Z,13.97
2023-05-19T02:13:46.127Z,13.99
2023-05-19T02:16:51.412Z,13.96
2023-05-19T02:19:59.320Z,13.92
2023-05-19T02:23:05.951Z,13.92
2023-05-19T02:26:12.746Z,13.92
2023-05-19T02:29:19.336Z,13.92
2023-05-19T02:32:26.380Z,13.91
2023-05-19T02:35:32.958Z,13.92
2023-05-19T02:38:39.040Z,13.95
2023-05-19T02:41:44.585Z,14.00
2023-05-19T02:44:50.069Z,14.05
2023-05-19T02:47:56.659Z,14.09
2023-05-19T02:51:01.852Z,14.16
2023-05-19T02:54:07.713Z,14.22
2023-05-19T02:57:13.488Z,14.29
2023-05-19T03:00:21.146Z,14.34
2023-05-19T03:03:26.835Z,14.41
2023-05-19T03:06:33.483Z,14.48
2023-05-19T03:09:40.106Z,14.55
2023-05-19T03:12:46.109Z,14.60
2023-05-19T03:15:52.914Z,14.65
2023-05-19T03:18:58.775Z,14.70
2023-05-19T03:22:05.506Z,14.76
2023-05-19T03:25:12.198Z,14.83
2023-05-19T03:28:17.794Z,14.93
2023-05-19T03:31:24.198Z,15.03
2023-05-19T03:34:30.598Z,15.12
2023-05-19T03:37:35.845Z,15.24
2023-05-19T03:40:41.251Z,15.35
2023-05-19T03:43:47.513Z,15.45
2023-05-19T03:46:54.825Z,15.58
2023-05-19T03:50:01.706Z,15.69
2023-05-19T03:53:16.332Z,15.81
2023-05-19T03:56:23.847Z,15.94
2023-05-19T03:59:30.878Z,16.04
2023-05-19T04:02:37.159Z,16.16
2023-05-19T04:05:43.919Z,16.26
2023-05-19T04:08:51.521Z,16.37
2023-05-19T04:11:58.372Z,16.48
2023-05-19T04:15:06.036Z,16.57
2023-05-19T04:18:12.812Z,16.66
2023-05-19T04:21:18.437Z,16.76
2023-05-19T04:24:23.545Z,16.88
2023-05-19T04:27:29.969Z,16.98
2023-05-19T04:30:35.668Z,17.09
2023-05-19T04:33:42.250Z,17.22
2023-05-19T04:36:49.176Z,17.35
2023-05-19T04:39:55.309Z,17.51
2023-05-19T04:43:02.771Z,17.64
2023-05-19T04:46:10.383Z,17.76
2023-05-19T04:49:19.002Z,17.88
2023-05-19T04:52:26.941Z,18.01
2023-05-19T04:55:33.000Z,18.14
2023-05-19T04:58:41.843Z,18.24
2023-05-19T05:01:47.814Z,18.37
2023-05-19T05:04:53.876Z,18.51
2023-05-19T05:08:01.244Z,18.64
2023-05-19T05:11:10.311Z,18.79
2023-05-19T05:14:16.926Z,18.93
2023-05-19T05:17:27.718Z,19.04
2023-05-19T05:20:34.994Z,19.20
2023-05-19T05:23:41.036Z,19.34
2023-05-19T05:26:49.123Z,19.51
2023-05-19T05:29:56.450Z,19.66
2023-05-19T05:33:03.373Z,19.79
2023-05-19T05:36:11.728Z,19.90
2023-05-19T05:39:18.472Z,20.04
2023-05-19T05:42:29.553Z,20.18
2023-05-19T05:45:35.439Z,20.31
2023-05-19T05:48:41.886Z,20.46
2023-05-19T05:52:04.307Z,20.58
2023-05-19T05:54:59.346Z,20.75
2023-05-19T05:58:08.621Z,20.89
2023-05-19T06:01:18.680Z,21.03
2023-05-19T06:04:26.075Z,21.17
2023-05-19T06:07:31.751Z,21.30
2023-05-19T06:10:39.193Z,21.45
2023-05-19T06:13:46.087Z,21.60
2023-05-19T06:16:54.946Z,21.74
2023-05-19T06:20:02.203Z,21.87
2023-05-19T06:23:08.529Z,22.01
2023-05-19T06:26:14.102Z,22.13
2023-05-19T06:29:19.515Z,22.28
2023-05-19T06:32:26.461Z,22.40
2023-05-19T06:35:33.244Z,22.53
2023-05-19T06:38:40.161Z,22.68
2023-05-19T06:41:46.428Z,22.82
2023-05-19T06:44:59.792Z,22.91
2023-05-19T06:48:06.178Z,23.03
2023-05-19T06:51:12.387Z,23.12
2023-05-19T06:54:23.140Z,23.20
2023-05-19T06:57:29.130Z,23.33
2023-05-19T07:00:35.804Z,23.48
2023-05-19T07:03:42.744Z,23.57
2023-05-19T07:06:48.762Z,23.64
2023-05-19T07:09:55.088Z,23.72
2023-05-19T07:13:02.203Z,23.83
2023-05-19T07:16:08.007Z,23.90
2023-05-19T07:19:16.325Z,23.98
2023-05-19T07:22:24.335Z,24.13
2023-05-19T07:25:29.237Z,24.29
2023-05-19T07:28:36.505Z,24.41
2023-05-19T07:31:43.495Z,24.49
2023-05-19T07:34:51.656Z,24.64
2023-05-19T07:38:00.250Z,24.77
2023-05-19T07:41:05.561Z,24.87
2023-05-19T07:44:13.930Z,25.00
2023-05-19T07:47:19.748Z,25.13
2023-05-19T07:50:24.947Z,25.28
2023-05-19T07:53:30.604Z,25.41
2023-05-19T07:56:37.501Z,25.46
2023-05-19T07:59:44.689Z,25.46
2023-05-19T08:02:54.171Z,25.51
2023-05-19T08:06:01.576Z,25.60
2023-05-19T08:09:09.034Z,25.67
2023-05-19T08:12:15.017Z,25.80
2023-05-19T08:15:24.351Z,25.98
2023-05-19T08:18:31.975Z,26.14
2023-05-19T08:21:39.325Z,26.17
2023-05-19T08:24:45.901Z,26.29
2023-05-19T08:27:52.210Z,26.52
2023-05-19T08:30:58.896Z,26.72
2023-05-19T08:34:06.171Z,26.81
2023-05-19T08:37:13.942Z,26.84
2023-05-19T08:40:23.157Z,26.86
2023-05-19T08:43:28.756Z,26.67
2023-05-19T08:46:38.363Z,26.62
2023-05-19T08:49:43.349Z,26.70
2023-05-19T08:53:21.059Z,26.85
2023-05-19T08:56:21.588Z,26.98
2023-05-19T08:59:29.579Z,26.95
2023-05-19T09:02:36.063Z,26.79
2023-05-19T09:05:42.483Z,26.75
2023-05-19T09:08:49.542Z,26.70
2023-05-19T09:11:55.816Z,26.62
2023-05-19T09:15:01.103Z,26.60
2023-05-19T09:18:09.525Z,26.76
2023-05-19T09:21:17.654Z,27.02
2023-05-19T09:24:24.332Z,27.24
2023-05-19T09:27:38.085Z,27.27
2023-05-19T09:30:45.081Z,27.24
2023-05-19T09:33:56.845Z,27.14
2023-05-19T09:37:02.729Z,26.99
2023-05-19T09:40:11.217Z,26.76
2023-05-19T09:43:22.626Z,26.77
2023-05-19T09:46:30.561Z,26.86
2023-05-19T09:49:39.855Z,27.13
2023-05-19T09:52:45.326Z,27.45
2023-05-19T09:55:52.188Z,27.68
2023-05-19T09:59:01.154Z,27.50
2023-05-19T10:02:10.124Z,27.31
2023-05-19T10:05:16.866Z,27.39
2023-05-19T10:08:24.395Z,27.61
2023-05-19T10:11:31.099Z,27.88
2023-05-19T10:14:41.151Z,28.04
2023-05-19T10:17:46.378Z,28.13
2023-05-19T10:20:53.674Z,28.27
2023-05-19T10:24:00.052Z,28.28
2023-05-19T10:27:18.129Z,28.11
2023-05-19T10:30:34.749Z,27.96
2023-05-19T10:34:10.485Z,27.82
2023-05-19T10:37:44.995Z,27.86
2023-05-19T10:41:13.066Z,28.20
2023-05-19T10:44:40.629Z,28.52
2023-05-19T10:47:55.203Z,28.37
2023-05-19T10:51:17.147Z,28.13
2023-05-19T10:54:28.917Z,27.97
2023-05-19T10:57:43.206Z,27.95
2023-05-19T11:00:51.890Z,28.23
2023-05-19T11:04:09.665Z,28.54
2023-05-19T11:07:18.631Z,28.76
2023-05-19T11:10:30.157Z,29.00
2023-05-19T11:13:37.450Z,28.93
2023-05-19T11:16:50.722Z,28.68
2023-05-19T11:20:12.087Z,28.51
2023-05-19T11:23:30.137Z,28.35
2023-05-19T11:26:56.985Z,28.19
2023-05-19T11:30:06.813Z,28.09
2023-05-19T11:33:13.262Z,27.97
2023-05-19T11:36:19.019Z,27.81
2023-05-19T11:39:24.574Z,27.71
2023-05-19T11:42:31.549Z,27.66
2023-05-19T11:45:41.196Z,27.92
2023-05-19T11:48:48.748Z,28.26
2023-05-19T11:51:55.926Z,28.53
2023-05-19T11:55:03.606Z,28.78
2023-05-19T11:58:13.501Z,29.08
2023-05-19T12:01:21.010Z,29.24
2023-05-19T12:04:26.411Z,29.46
2023-05-19T12:07:38.780Z,29.68
2023-05-19T12:10:46.571Z,29.81
2023-05-19T12:13:54.736Z,29.84
2023-05-19T12:17:02.548Z,30.04
2023-05-19T12:20:08.512Z,30.24
2023-05-19T12:23:15.060Z,30.13
2023-05-19T12:26:21.784Z,29.85
2023-05-19T12:29:28.373Z,29.66
2023-05-19T12:32:33.642Z,29.51
2023-05-19T12:35:44.586Z,29.51
2023-05-19T12:38:50.360Z,29.48
2023-05-19T12:42:01.351Z,29.19
2023-05-19T12:45:08.463Z,28.86
2023-05-19T12:48:13.486Z,28.63
2023-05-19T12:51:20.531Z,28.46
2023-05-19T12:54:27.369Z,28.46
2023-05-19T12:57:35.499Z,28.46
2023-05-19T13:00:43.448Z,28.47
2023-05-19T13:03:57.067Z,28.48
2023-05-19T13:07:03.094Z,28.50
2023-05-19T13:10:10.416Z,28.50
2023-05-19T13:13:19.054Z,28.50
2023-05-19T13:16:26.577Z,28.51
2023-05-19T13:19:33.976Z,28.47
2023-05-19T13:22:41.920Z,28.44
2023-05-19T13:25:49.019Z,28.46
2023-05-19T13:28:54.131Z,28.49
2023-05-19T13:32:03.636Z,28.52
2023-05-19T13:35:09.412Z,28.59
2023-05-19T13:38:15.922Z,28.86
2023-05-19T13:41:22.766Z,29.10
2023-05-19T13:44:27.970Z,29.44
2023-05-19T13:47:33.143Z,29.44
2023-05-19T13:50:40.762Z,29.59
2023-05-19T13:53:46.868Z,29.59
2023-05-19T13:56:55.620Z,29.59
2023-05-19T14:00:02.639Z,29.55
2023-05-19T14:03:14.667Z,29.48
2023-05-19T14:06:21.676Z,29.20
2023-05-19T14:09:27.994Z,29.20
2023-05-19T14:12:45.052Z,29.16
2023-05-19T14:15:44.696Z,29.17
2023-05-19T14:18:51.522Z,29.16
2023-05-19T14:21:58.527Z,29.20
2023-05-19T14:25:05.576Z,29.46
2023-05-19T14:28:11.517Z,29.46
2023-05-19T14:31:16.577Z,29.61
2023-05-19T14:34:24.039Z,29.82
2023-05-19T14:37:33.301Z,30.05
2023-05-19T14:40:38.811Z,30.07
2023-05-19T14:43:46.398Z,30.30
2023-05-19T14:46:52.910Z,30.46
2023-05-19T14:49:59.922Z,30.54
2023-05-19T14:53:05.734Z,30.61
2023-05-19T14:56:13.849Z,30.58
2023-05-19T14:59:20.979Z,30.45
2023-05-19T15:02:27.489Z,30.16
2023-05-19T15:05:32.262Z,29.98
2023-05-19T15:08:39.600Z,29.83
2023-05-19T15:11:46.556Z,29.72
2023-05-19T15:14:52.245Z,29.64
2023-05-19T15:17:57.711Z,29.67
2023-05-19T15:21:04.296Z,29.59
2023-05-19T15:24:10.133Z,29.45
2023-05-19T15:27:16.225Z,29.31
2023-05-19T15:30:22.078Z,29.17
2023-05-19T15:33:26.986Z,29.14
2023-05-19T15:36:32.255Z,29.24
2023-05-19T15:39:38.016Z,29.22
2023-05-19T15:42:44.986Z,29.22
2023-05-19T15:45:51.062Z,29.19
2023-05-19T15:48:56.486Z,29.10
2023-05-19T15:52:02.506Z,29.10
2023-05-19T15:55:08.718Z,29.06
2023-05-19T15:58:16.335Z,28.84
2023-05-19T16:01:21.558Z,28.40
2023-05-19T16:04:27.571Z,28.40
2023-05-19T16:07:32.326Z,28.21
2023-05-19T16:10:36.780Z,28.01
2023-05-19T16:13:42.407Z,27.81
2023-05-19T16:16:47.964Z,27.59
2023-05-19T16:19:56.122Z,27.38
2023-05-19T16:23:02.788Z,27.16
2023-05-19T16:26:08.418Z,26.94
2023-05-19T16:29:14.870Z,26.76
2023-05-19T16:32:21.681Z,26.60
2023-05-19T16:35:28.771Z,26.39
2023-05-19T16:38:35.375Z,26.20
2023-05-19T16:41:40.917Z,26.02
2023-05-19T16:44:46.651Z,25.87
2023-05-19T16:47:53.409Z,25.72
2023-05-19T16:51:02.569Z,25.59
2023-05-19T16:54:10.084Z,25.42
2023-05-19T16:57:16.934Z,25.25
2023-05-19T17:00:24.297Z,25.10
2023-05-19T17:03:31.722Z,24.95
2023-05-19T17:06:38.943Z,24.78
2023-05-19T17:09:44.736Z,24.58
2023-05-19T17:12:51.585Z,24.42
2023-05-19T17:15:58.750Z,24.25
2023-05-19T17:19:04.586Z,24.08
2023-05-19T17:22:11.107Z,23.87
2023-05-19T17:25:17.494Z,23.67
2023-05-19T17:28:23.375Z,23.47
2023-05-19T17:31:31.982Z,23.24
2023-05-19T17:34:38.736Z,23.00
2023-05-19T17:37:44.688Z,22.79
2023-05-19T17:40:44.198Z,22.57
2023-05-19T17:43:50.786Z,22.40
2023-05-19T17:46:58.069Z,22.25
2023-05-19T17:50:03.959Z,22.08
2023-05-19T17:53:09.738Z,21.90
2023-05-19T17:56:18.162Z,21.74
2023-05-19T17:59:23.121Z,21.57
2023-05-19T18:02:27.861Z,21.42
2023-05-19T18:05:35.036Z,21.24
2023-05-19T18:08:41.192Z,21.10
2023-05-19T18:11:46.617Z,20.93
2023-05-19T18:14:53.201Z,20.80
2023-05-19T18:17:59.258Z,20.64
2023-05-19T18:21:05.959Z,20.50
2023-05-19T18:24:13.418Z,20.39
2023-05-19T18:27:18.856Z,20.31
2023-05-19T18:30:24.872Z,20.22
2023-05-19T18:33:31.899Z,20.19
2023-05-19T18:36:38.874Z,20.17
2023-05-19T18:39:44.631Z,20.11
2023-05-19T18:42:50.633Z,20.02
2023-05-19T18:45:55.945Z,19.90
2023-05-19T18:49:03.744Z,19.79
2023-05-19T18:52:09.269Z,19.68
2023-05-19T18:55:16.047Z,19.57
2023-05-19T18:58:23.316Z,19.48
2023-05-19T19:01:30.158Z,19.39
2023-05-19T19:04:36.195Z,19.29
2023-05-19T19:07:42.970Z,19.21
2023-05-19T19:10:50.348Z,19.09
2023-05-19T19:14:01.737Z,18.99
2023-05-19T19:17:07.701Z,18.87
2023-05-19T19:20:15.279Z,18.76
2023-05-19T19:23:20.608Z,18.66
2023-05-19T19:26:25.678Z,18.57
2023-05-19T19:29:30.632Z,18.47
2023-05-19T19:32:38.527Z,18.40
2023-05-19T19:35:46.565Z,18.33
2023-05-19T19:38:54.157Z,18.27
2023-05-19T19:42:01.944Z,18.18
2023-05-19T19:45:05.851Z,18.12
2023-05-19T19:47:52.669Z,18.05
2023-05-19T19:50:45.861Z,17.99
2023-05-19T19:53:38.567Z,17.93
2023-05-19T19:56:45.136Z,17.86
2023-05-19T19:59:50.888Z,17.76
2023-05-19T20:03:05.135Z,17.67
2023-05-19T20:06:05.639Z,17.61
2023-05-19T20:09:12.701Z,17.52
2023-05-19T20:12:18.434Z,17.46
2023-05-19T20:15:25.558Z,17.38
2023-05-19T20:18:32.236Z,17.34
2023-05-19T20:21:38.639Z,17.31
2023-05-19T20:24:43.542Z,17.27
2023-05-19T20:27:49.750Z,17.23
2023-05-19T20:30:56.303Z,17.25
2023-05-19T20:34:03.580Z,17.32
2023-05-19T20:37:11.044Z,17.42
2023-05-19T20:40:19.916Z,17.54
2023-05-19T20:43:25.358Z,17.61
2023-05-19T20:46:31.263Z,17.76
2023-05-19T20:49:37.756Z,17.95
2023-05-19T20:52:42.955Z,18.11
2023-05-19T20:55:49.060Z,18.23
2023-05-19T20:58:55.496Z,18.32
2023-05-19T21:02:01.545Z,18.36
2023-05-19T21:05:06.256Z,18.40
2023-05-19T21:08:15.569Z,18.41
2023-05-19T21:11:21.744Z,18.46
2023-05-19T21:14:27.871Z,18.47
2023-05-19T21:17:33.028Z,18.50
2023-05-19T21:20:39.097Z,18.52
2023-05-19T21:23:45.381Z,18.54
2023-05-19T21:26:50.965Z,18.53
2023-05-19T21:29:56.695Z,18.51
2023-05-19T21:33:03.506Z,18.49
2023-05-19T21:36:09.056Z,18.47
2023-05-19T21:39:15.141Z,18.46
2023-05-19T21:42:21.729Z,18.42
2023-05-19T21:45:27.122Z,18.38
2023-05-19T21:48:33.590Z,18.34
2023-05-19T21:51:42.334Z,18.30
2023-05-19T21:54:48.185Z,18.28
2023-05-19T21:57:55.986Z,18.22
2023-05-19T22:01:07.902Z,18.16
2023-05-19T22:04:18.629Z,18.10
2023-05-19T22:07:25.171Z,18.02
2023-05-19T22:10:30.480Z,17.93
2023-05-19T22:13:40.257Z,17.85
2023-05-19T22:16:47.184Z,17.77
2023-05-19T22:19:54.088Z,17.72
2023-05-19T22:23:00.464Z,17.67
2023-05-19T22:26:08.365Z,17.62
2023-05-19T22:29:14.325Z,17.57
2023-05-19T22:32:24.820Z,17.51
2023-05-19T22:35:30.826Z,17.43
2023-05-19T22:38:36.019Z,17.36
2023-05-19T22:41:42.643Z,17.29
2023-05-19T22:44:48.390Z,17.25
2023-05-19T22:47:55.791Z,17.21
2023-05-19T22:51:01.765Z,17.17
2023-05-19T22:54:08.732Z,17.13
2023-05-19T22:57:13.817Z,17.10
2023-05-19T23:00:21.773Z,17.09
2023-05-19T23:03:26.889Z,17.05
2023-05-19T23:06:32.307Z,17.02
2023-05-19T23:09:37.748Z,17.00
2023-05-19T23:12:43.828Z,16.97
2023-05-19T23:15:42.192Z,16.95
2023-05-19T23:18:42.319Z,16.93
2023-05-19T23:21:47.550Z,16.91
2023-05-19T23:24:53.602Z,16.89
2023-05-19T23:28:00.037Z,16.88
2023-05-19T23:31:09.942Z,16.86
2023-05-19T23:34:15.638Z,16.82
2023-05-19T23:37:21.649Z,16.80
2023-05-19T23:40:28.016Z,16.78
2023-05-19T23:43:33.493Z,16.77
2023-05-19T23:46:39.806Z,16.74
2023-05-19T23:49:47.561Z,16.74
2023-05-19T23:52:54.662Z,16.72
2023-05-19T23:56:00.162Z,16.71
2023-05-19T23:59:06.933Z,16.69
